Time;durP1;ratioP1;P1;durP2;ratioP2;P2;SDS_P1;SDS_P2;PMS_P1;PMS_P2;Temp;Humidity;BMP_temperature;BMP_pressure;BME280_temperature;BME280_humidity;BME280_pressure;Samples;Min_cycle;Max_cycle;Signal;HPM_P1;HPM_P2
2024/04/23 00:02:03;;;;;;;7.40;6.17;;;2.10;99.90;;;-141.84;83.37;47846.78;5443675;26;20647;-68
2024/04/23 00:04:30;;;;;;;8.00;6.43;;;2.00;99.90;;;-141.84;82.03;42348.44;5420822;26;20965;-68
2024/04/23 00:07:03;;;;;;;8.93;7.00;;;2.30;99.90;;;-141.84;81.26;34407.00;5440480;26;20234;-68
2024/04/23 00:09:32;;;;;;;7.80;7.00;;;2.10;99.90;;;-141.84;81.58;34135.69;5370043;26;20304;-69
2024/04/23 00:12:02;;;;;;;7.13;6.37;;;2.10;99.90;;;-141.84;82.17;37692.72;5420735;26;20257;-69
2024/04/23 00:14:29;;;;;;;7.13;6.27;;;2.00;99.90;;;-141.84;83.01;46013.16;5434480;26;20625;-69
2024/04/23 00:17:04;;;;;;;7.87;6.57;;;2.00;99.90;;;-141.84;82.99;44965.75;5435107;26;20250;-69
2024/04/23 00:19:33;;;;;;;7.70;6.40;;;2.00;99.90;;;-141.84;83.29;49157.03;5433407;26;20297;-68
2024/04/23 00:22:03;;;;;;;7.93;7.03;;;2.00;99.90;;;-141.84;82.52;44965.75;5429389;26;20231;-69
2024/04/23 00:24:31;;;;;;;7.77;6.80;;;2.00;99.90;;;-141.84;82.09;39994.34;5435058;26;20994;-69
2024/04/23 00:27:03;;;;;;;7.80;6.60;;;2.00;99.90;;;-141.84;82.45;43133.44;5422485;26;20288;-69
2024/04/23 00:29:31;;;;;;;7.07;6.30;;;2.00;99.90;;;-141.84;81.60;39340.69;5429956;26;20285;-69
2024/04/23 00:32:03;;;;;;;6.87;6.17;;;2.00;99.90;;;-141.84;82.41;41040.44;5442553;26;20363;-69
2024/04/23 00:34:32;;;;;;;7.20;6.50;;;1.90;99.90;;;-141.84;82.46;44703.94;5381224;26;20234;-68
2024/04/23 00:37:02;;;;;;;8.50;6.93;;;2.00;99.90;;;-141.84;83.55;49157.03;5429842;26;20222;-68
2024/04/23 00:39:30;;;;;;;7.40;6.43;;;1.90;99.90;;;-141.84;83.31;48370.84;5437309;26;20253;-68
2024/04/23 00:42:01;;;;;;;8.80;7.17;;;1.90;99.90;;;-141.84;84.05;52828.09;5433529;26;20905;-68
2024/04/23 00:44:29;;;;;;;8.90;7.00;;;1.90;99.90;;;-141.84;84.57;56239.94;5415417;26;20255;-69
2024/04/23 00:46:59;;;;;;;8.23;7.20;;;1.80;99.90;;;-141.84;84.64;57290.34;5440745;26;20717;-69
2024/04/23 00:49:31;;;;;;;7.10;6.40;;;1.80;99.90;;;-141.84;83.95;52828.09;5420841;26;20268;-67
2024/04/23 00:52:02;;;;;;;8.27;6.40;;;1.80;99.90;;;-141.84;83.90;54140.00;5418594;26;20306;-68
2024/04/23 00:54:31;;;;;;;7.37;6.60;;;1.80;99.90;;;-141.84;84.51;54927.34;5432415;26;20251;-68
2024/04/23 00:57:03;;;;;;;10.07;7.03;;;1.80;99.90;;;-141.84;84.33;56239.94;5425031;26;20602;-68
2024/04/23 00:59:33;;;;;;;8.10;7.03;;;1.70;99.90;;;-141.84;83.80;53090.44;5436581;26;20986;-68
2024/04/23 01:02:04;;;;;;;8.50;6.80;;;1.80;99.90;;;-141.84;83.73;52041.16;5436097;26;20257;-68
2024/04/23 01:04:36;;;;;;;9.43;7.27;;;1.70;99.90;;;-141.84;84.13;54664.88;5437219;26;20279;-68
2024/04/23 01:07:06;;;;;;;8.67;6.87;;;1.70;99.90;;;-141.84;82.83;44180.38;5437712;26;20277;-69
2024/04/23 01:09:34;;;;;;;8.60;6.67;;;1.80;99.90;;;-141.84;82.62;44965.75;5433450;26;20313;-67
2024/04/23 01:12:06;;;;;;;7.10;6.40;;;1.80;99.90;;;-141.84;83.13;47584.78;5431798;26;20297;-70
2024/04/23 01:14:37;;;;;;;7.70;6.90;;;1.80;99.90;;;-141.84;84.17;54402.44;5432939;26;20253;-69
2024/04/23 01:17:12;;;;;;;8.13;7.20;;;1.80;99.90;;;-141.84;84.71;57815.66;5402462;26;20251;-68
2024/04/23 01:19:54;;;;;;;8.03;6.83;;;1.70;99.90;;;-141.84;85.09;60443.22;5417164;26;20226;-68
2024/04/23 01:22:32;;;;;;;8.00;6.87;;;1.70;99.90;;;-141.84;84.89;59654.75;5418981;26;20331;-68
2024/04/23 01:25:06;;;;;;;7.43;6.63;;;1.70;99.90;;;-141.84;84.37;55714.84;5433169;26;20374;-69
2024/04/23 01:27:40;;;;;;;7.77;6.97;;;1.70;99.90;;;-141.84;83.68;52041.16;5421633;26;20260;-69
2024/04/23 01:30:11;;;;;;;7.70;6.83;;;1.70;99.90;;;-141.84;85.00;58078.34;5420446;26;20258;-69
2024/04/23 01:32:44;;;;;;;7.83;7.03;;;1.70;99.90;;;-141.84;85.24;62020.59;5376979;26;20357;-69
2024/04/23 01:35:13;;;;;;;8.50;7.57;;;1.70;99.90;;;-141.84;86.04;63072.50;5441473;26;20297;-69
2024/04/23 01:37:50;;;;;;;9.10;6.83;;;1.60;99.90;;;-141.84;86.96;68599.69;5441811;26;20231;-68
2024/04/23 01:40:19;;;;;;;8.50;7.10;;;1.50;99.90;;;-141.84;86.64;68599.69;5407973;26;20282;-69
2024/04/23 01:42:54;;;;;;;8.20;7.23;;;1.60;99.90;;;-141.84;85.36;62020.59;5420565;26;20251;-69
2024/04/23 01:45:23;;;;;;;8.00;7.10;;;1.60;99.90;;;-141.84;84.69;58078.34;5416436;26;20781;-70
2024/04/23 01:47:54;;;;;;;8.13;7.27;;;1.60;99.90;;;-141.84;84.37;56502.53;5419130;26;20813;-68
2024/04/23 01:50:22;;;;;;;7.90;7.10;;;1.60;99.90;;;-141.84;84.75;57553.00;5416495;26;20254;-68
2024/04/23 01:52:52;;;;;;;8.27;7.00;;;1.60;99.90;;;-141.84;85.67;62283.53;5401172;26;20254;-69
2024/04/23 01:55:19;;;;;;;9.37;7.43;;;1.50;99.90;;;-141.84;84.65;57290.34;5417028;26;20231;-69
2024/04/23 01:57:54;;;;;;;8.40;6.93;;;1.60;99.90;;;-141.84;85.07;56765.13;5401502;26;20254;-68
2024/04/23 02:00:24;;;;;;;8.70;7.47;;;1.50;99.90;;;-141.84;86.75;66229.97;5436191;26;20288;-68
2024/04/23 02:02:56;;;;;;;9.77;7.67;;;1.40;99.90;;;-141.84;87.51;71761.53;5435401;26;20257;-68
2024/04/23 02:05:28;;;;;;;7.73;6.90;;;1.40;99.90;;;-141.84;88.04;74134.56;5432225;26;20691;-68
2024/04/23 02:07:58;;;;;;;9.20;7.60;;;1.40;99.90;;;-141.84;88.57;75981.22;5441513;26;20723;-69
2024/04/23 02:10:27;;;;;;;9.90;8.23;;;1.30;99.90;;;-141.84;89.16;79412.97;5434561;26;20235;-66
2024/04/23 02:13:00;;;;;;;8.83;7.27;;;1.30;99.90;;;-141.84;90.30;82054.78;5438720;26;20269;-69
2024/04/23 02:15:30;;;;;;;8.30;7.33;;;1.30;99.90;;;-141.84;90.37;83640.72;5423923;26;20254;-69
2024/04/23 02:18:00;;;;;;;9.73;7.40;;;1.30;99.90;;;-141.84;89.88;82847.66;5430553;26;20255;-69
2024/04/23 02:20:32;;;;;;;8.40;7.50;;;1.30;99.90;;;-141.84;88.19;75981.22;5415671;26;20294;-68
2024/04/23 02:23:02;;;;;;;9.23;7.77;;;1.30;99.90;;;-141.84;88.75;76245.09;5415590;26;20367;-68
2024/04/23 02:25:29;;;;;;;8.50;7.10;;;1.30;99.90;;;-141.84;89.09;79677.06;5437114;26;20338;-69
2024/04/23 02:28:02;;;;;;;9.10;7.73;;;1.30;99.90;;;-141.84;87.64;73079.69;5459731;26;20391;-69
2024/04/23 02:30:29;;;;;;;9.00;7.50;;;1.30;99.90;;;-141.84;87.97;73607.09;5450574;26;20249;-68
2024/04/23 02:32:59;;;;;;;8.57;7.67;;;1.30;99.90;;;-141.84;88.08;73607.09;5451159;26;20261;-68
2024/04/23 02:35:30;;;;;;;8.80;7.90;;;1.30;99.90;;;-141.84;88.04;74925.88;5451909;26;20284;-69
2024/04/23 02:38:00;;;;;;;8.00;7.17;;;1.20;99.90;;;-141.84;87.99;74662.09;5450710;26;20249;-68
2024/04/23 02:40:29;;;;;;;8.57;7.67;;;1.30;99.90;;;-141.84;87.95;73079.69;5451174;26;20241;-68
2024/04/23 02:43:02;;;;;;;11.70;8.03;;;1.20;99.90;;;-141.84;86.30;67283.00;5450584;26;20307;-71
2024/04/23 02:45:30;;;;;;;8.73;7.17;;;1.30;99.90;;;-141.84;84.84;59917.56;5450198;26;20246;-69
2024/04/23 02:48:02;;;;;;;8.57;7.63;;;1.20;99.90;;;-141.84;86.00;61231.81;5389268;26;20254;-69
2024/04/23 02:50:30;;;;;;;10.80;7.40;;;1.30;99.90;;;-141.84;87.58;70443.78;5450418;26;20253;-70
2024/04/23 02:53:00;;;;;;;9.60;8.20;;;1.20;99.90;;;-141.84;89.14;78356.72;5450827;26;20281;-69
2024/04/23 02:55:29;;;;;;;7.93;7.13;;;;;;;-141.84;88.37;75189.69;5449078;26;20338;-69
2024/04/23 02:58:02;;;;;;;9.27;8.27;;;;;;;-141.84;87.87;74925.88;5451267;26;20333;-69
2024/04/23 03:00:30;;;;;;;10.47;8.17;;;;;;;-141.84;87.40;70970.84;5450565;26;20253;-69
2024/04/23 03:03:00;;;;;;;10.27;8.60;;;;;;;-141.84;86.43;65966.75;5451061;26;20792;-68
2024/04/23 03:05:29;;;;;;;10.63;8.77;;;;;;;-141.84;85.98;64387.81;5454467;26;20292;-69
2024/04/23 03:08:00;;;;;;;11.30;9.07;;;;;;;-141.84;86.61;65440.38;5452556;26;20246;-70
2024/04/23 03:10:28;;;;;;;12.30;10.30;;;;;;;-141.84;86.84;66229.97;5447565;26;20821;-69
2024/04/23 03:12:58;;;;;;;12.37;10.53;;;;;;;-141.84;87.26;69653.38;5451978;26;20224;-68
2024/04/23 03:15:30;;;;;;;11.37;9.17;;;;;;;-141.84;88.10;72552.38;5449842;26;20253;-68
2024/04/23 03:18:01;;;;;;;12.17;10.37;;;;;;;-141.84;90.50;81526.28;5449233;26;20284;-68
2024/04/23 03:20:29;;;;;;;14.50;10.93;;;;;;;-141.84;90.56;84962.78;5449613;26;20314;-69
2024/04/23 03:23:00;;;;;;;12.97;10.37;;;;;;;-141.84;88.63;77564.72;5449278;26;20277;-68
2024/04/23 03:25:28;;;;;;;11.60;10.13;;;;;;;-141.84;89.00;77300.78;5434895;26;20273;-66
2024/04/23 03:27:58;;;;;;;13.67;10.80;;;;;;;-141.84;90.50;83905.09;5434243;26;20233;-68
2024/04/23 03:30:29;;;;;;;13.87;10.70;;;;;;;-141.84;89.59;81262.06;5426621;26;20293;-68
2024/04/23 03:32:59;;;;;;;13.33;10.27;;;;;;;-141.84;89.39;80469.50;5433931;26;20708;-69
2024/04/23 03:35:27;;;;;;;11.63;9.67;;;;;;;-141.84;90.21;80997.84;5434606;26;20249;-68
2024/04/23 03:38:00;;;;;;;10.10;9.10;;;;;;;-141.84;91.26;84433.91;5430422;26;20265;-69
2024/04/23 03:40:31;;;;;;;12.33;9.53;;;;;;;-141.84;92.23;88666.94;5440474;26;20358;-68
2024/04/23 03:43:02;;;;;;;12.53;9.63;;;;;;;-141.84;93.47;92109.53;5420632;26;20279;-68
2024/04/23 03:45:34;;;;;;;12.70;9.90;;;;;;;-141.84;92.93;91579.72;5435716;26;20295;-69
2024/04/23 03:48:05;;;;;;;10.47;9.13;;;;;;;-141.84;92.98;92109.53;5428180;26;20289;-69
2024/04/23 03:50:34;;;;;;;10.40;9.23;;;;;;;-141.84;92.63;91579.72;5412388;26;20660;-68
2024/04/23 03:53:04;;;;;;;11.13;9.40;;;;;;;-141.84;93.70;92109.53;5445122;26;20249;-68
2024/04/23 03:55:33;;;;;;;12.23;10.10;;;;;;;-141.84;94.85;95555.09;5426906;26;20336;-68
2024/04/23 03:58:03;;;;;;;11.30;10.07;;;;;;;-141.84;95.54;98472.84;5434544;26;20778;-68
2024/04/23 04:00:34;;;;;;;13.43;10.03;;;;;;;-141.84;92.39;91314.81;5433713;26;20337;-69
2024/04/23 04:06:10;;;;;;;13.47;10.80;;;;;;;-141.84;90.96;86020.75;5428809;26;20629;-69
2024/04/23 04:08:41;;;;;;;13.57;10.07;;;;;;;-141.84;90.64;84698.34;5417402;26;20254;-69
2024/04/23 04:11:11;;;;;;;11.80;9.60;;;;;;;-141.84;91.84;87872.91;5427016;26;20291;-68
2024/04/23 04:13:42;;;;;;;12.63;10.90;;;;;;;-141.84;92.88;91579.72;5433625;26;20264;-68
2024/04/23 04:16:12;;;;;;;13.47;10.23;;;;;;;-141.84;93.56;92904.41;5434956;26;20246;-58
2024/04/23 04:18:43;;;;;;;15.67;11.80;;;;;;;-141.84;93.99;94494.59;5433044;26;20256;-69
2024/04/23 04:21:11;;;;;;;16.40;12.03;;;;;;;-141.84;94.38;95820.25;5406833;26;20292;-68
2024/04/23 04:23:41;;;;;;;13.23;11.40;;;;;;;-141.84;91.85;90255.47;5429223;26;20250;-68
2024/04/23 04:26:11;;;;;;;13.17;11.70;;;;;;;-141.84;90.16;83640.72;5451224;26;20254;-67
2024/04/23 04:28:42;;;;;;;12.90;10.93;;;;;;;-141.84;90.23;83376.34;5453014;26;20276;-68
2024/04/23 04:31:12;;;;;;;12.03;10.53;;;;;;;-141.84;90.69;84698.34;5455152;26;20268;-68
2024/04/23 04:33:43;;;;;;;11.70;9.90;;;;;;;-141.84;89.71;82583.34;5452425;26;20257;-68
2024/04/23 04:36:11;;;;;;;11.37;9.60;;;;;;;-141.84;88.15;75717.34;5452823;26;20332;-68
2024/04/23 04:38:41;;;;;;;13.53;10.20;;;;;;;-141.84;88.31;76772.88;5453190;26;20259;-69
2024/04/23 04:41:09;;;;;;;13.50;11.33;;;;;;;-141.84;88.00;75453.50;5452369;26;20280;-69
2024/04/23 04:43:40;;;;;;;12.17;10.13;;;;;;;-141.84;87.37;71234.38;5452459;26;20234;-69
2024/04/23 04:46:11;;;;;;;15.60;10.23;;;;;;;-141.84;84.17;58603.75;5452491;26;20761;-70
2024/04/23 04:48:41;;;;;;;11.27;9.83;;;;;;;-141.84;83.11;48108.81;5453127;26;20300;-69
2024/04/23 04:51:13;;;;;;;11.23;9.83;;;;;;;-141.84;83.84;50467.75;5452679;26;20657;-68
2024/04/23 04:53:43;;;;;;;11.07;9.90;;;;;;;-141.84;81.22;34001.06;5451625;26;20358;-69
2024/04/23 04:56:13;;;;;;;11.40;9.80;;;;;;;-141.84;80.18;25563.56;5452889;26;20253;-68
2024/04/23 04:58:41;;;;;;;13.07;9.83;;;;;;;-141.84;80.45;27678.88;5452331;26;20280;-69
2024/04/23 05:01:14;;;;;;;12.30;9.83;;;;;;;-141.84;80.35;26504.00;5453625;26;20620;-69
2024/04/23 05:03:42;;;;;;;12.37;10.10;;;;;;;-141.84;79.75;25964.53;5452861;26;20745;-69
2024/04/23 05:06:12;;;;;;;11.57;9.93;;;;;;;-141.84;80.12;25748.78;5452735;26;20294;-69
2024/04/23 05:08:40;;;;;;;11.30;9.90;;;;;;;-141.84;79.88;25850.56;5452909;26;20283;-69
2024/04/23 05:11:11;;;;;;;12.07;10.03;;;;;;;-141.84;78.44;22591.03;5452366;26;20753;-68
2024/04/23 05:13:39;;;;;;;11.37;9.57;;;;;;;-141.84;76.77;20043.50;5452050;26;20734;-69
2024/04/23 05:16:10;;;;;;;12.87;9.90;;;;;;;-141.84;75.36;19198.09;5453273;26;20231;-67
2024/04/23 05:18:41;;;;;;;11.77;10.20;;;;;;;-141.84;74.24;18966.44;5454255;26;20358;-68
2024/04/23 05:21:11;;;;;;;14.93;10.40;;;;;;;-141.84;72.80;18789.66;5453005;26;20249;-68
2024/04/23 05:23:39;;;;;;;10.90;9.27;;;;;;;-141.84;71.45;18706.38;5452047;26;20249;-68
2024/04/23 05:26:11;;;;;;;12.57;10.23;;;;;;;-141.84;70.36;18736.84;5423903;26;20254;-68
2024/04/23 05:28:38;;;;;;;12.17;10.00;;;;;;;-141.84;68.94;18744.97;5430226;26;20234;-70
2024/04/23 05:33:59;;;;;;;11.00;8.67;;;;;;;-141.84;65.08;18832.34;5363780;26;20247;-69
2024/04/23 05:36:33;;;;;;;10.50;9.00;;;;;;;-141.84;64.27;18818.09;5432246;26;20278;-69
2024/04/23 05:39:03;;;;;;;9.70;8.30;;;;;;;-141.84;62.70;18870.94;5417056;26;20761;-68
2024/04/23 05:41:34;;;;;;;11.40;10.17;;;;;;;-141.84;60.98;18870.94;5431111;26;20744;-68
2024/04/23 05:44:06;;;;;;;11.77;9.33;;;;;;;-141.84;61.46;18883.13;5434952;26;20596;-70
2024/04/23 05:46:37;;;;;;;9.47;8.47;;;;;;;-141.84;60.15;18921.75;5433810;26;20221;-68
2024/04/23 05:49:45;;;;;;;10.37;8.73;;;;;;;-141.84;59.90;18919.69;5421038;26;20290;-68
2024/04/23 05:52:55;;;;;;;11.27;8.53;;;;;;;-141.84;59.79;18958.31;5398879;26;20257;-69
2024/04/23 05:55:38;;;;;;;9.23;7.93;;;;;;;-141.84;59.03;18935.97;5411555;26;20265;-69
2024/04/23 05:58:09;;;;;;;9.73;8.60;;;;;;;-141.84;58.80;18950.19;5404885;26;20245;-69
2024/04/23 06:00:39;;;;;;;9.50;7.77;;;;;;;-141.84;57.67;18952.22;5415314;26;20291;-68
2024/04/23 06:03:07;;;;;;;9.10;8.17;;;;;;;-141.84;56.93;18974.56;5400776;26;20253;-69
2024/04/23 06:05:38;;;;;;;8.57;7.70;;;;;;;-141.84;56.43;18956.28;5440966;26;20309;-68
2024/04/23 06:08:08;;;;;;;10.37;7.77;;;;;;;-141.84;55.57;18994.88;5434727;26;20250;-70
2024/04/23 06:10:41;;;;;;;11.07;8.63;;;;;;;-141.84;56.35;18974.56;5431750;26;20293;-69
2024/04/23 06:13:10;;;;;;;10.00;8.77;;;;;;;-141.84;56.33;19009.09;5432142;26;20272;-69
2024/04/23 06:15:40;;;;;;;9.73;8.73;;;;;;;-141.84;57.02;18984.72;5435106;26;20255;-69
2024/04/23 06:18:08;;;;;;;9.53;8.53;;;;;;;-141.84;55.07;19003.00;5440165;26;20316;-70
2024/04/23 06:20:39;;;;;;;9.20;7.73;;;;;;;-141.84;54.27;19017.25;5415882;26;20301;-69
2024/04/23 06:23:07;;;;;;;9.30;8.40;;;;;;;-141.84;55.24;19017.25;5401562;26;20566;-70
2024/04/23 06:25:43;;;;;;;8.73;7.93;;;6.40;99.90;;;-141.84;54.93;19015.19;5439519;26;20740;-70
2024/04/23 06:28:10;;;;;;;9.43;8.13;;;6.50;99.90;;;-141.84;54.60;19005.03;5451694;26;20230;-68
2024/04/23 06:30:41;;;;;;;13.13;8.97;;;6.30;99.90;;;-141.84;53.85;19023.34;5451387;26;20299;-68
2024/04/23 06:33:09;;;;;;;9.47;8.30;;;6.30;99.90;;;-141.84;53.95;19011.13;5451173;26;20253;-68
2024/04/23 06:35:39;;;;;;;10.60;8.97;;;6.20;99.90;;;-141.84;54.52;19019.28;5449647;26;20257;-68
2024/04/23 06:38:11;;;;;;;9.80;7.97;;;6.20;99.90;;;-141.84;54.63;19027.41;5452352;26;20253;-70
2024/04/23 06:40:41;;;;;;;9.00;7.90;;;6.30;99.90;;;-141.84;54.15;19059.91;5453115;26;20341;-69
2024/04/23 06:43:12;;;;;;;10.53;8.83;;;6.40;99.90;;;-141.84;54.44;19033.50;5440961;26;20259;-68
2024/04/23 06:45:41;;;;;;;10.30;9.23;;;6.40;99.90;;;-141.84;54.20;19013.16;5449981;26;20289;-69
2024/04/23 06:48:15;;;;;;;9.50;8.37;;;6.40;99.90;;;-141.84;55.26;19013.16;5450373;26;20634;-68
2024/04/23 06:50:43;;;;;;;9.83;8.80;;;6.40;99.90;;;-141.84;55.50;19015.19;5450878;26;20756;-70
2024/04/23 06:53:13;;;;;;;10.70;8.00;;;6.50;99.90;;;-141.84;54.20;19013.16;5450807;26;20253;-69
2024/04/23 06:55:43;;;;;;;9.13;8.17;;;6.50;99.90;;;-141.84;53.89;19041.63;5435456;26;21073;-68
2024/04/23 06:58:15;;;;;;;9.43;7.57;;;6.40;99.90;;;-141.84;53.98;19037.56;5450669;26;20281;-68
2024/04/23 07:00:43;;;;;;;8.27;7.37;;;6.40;99.90;;;-141.84;54.06;19025.38;5449445;26;20353;-69
2024/04/23 07:03:13;;;;;;;7.53;6.73;;;6.40;99.90;;;-141.84;52.78;19021.31;5449819;26;20275;-69
2024/04/23 07:05:41;;;;;;;6.87;6.17;;;6.40;99.90;;;-141.84;52.02;19041.63;5450160;26;20254;-69
2024/04/23 07:08:11;;;;;;;5.93;5.37;;;6.30;99.90;;;-141.84;52.71;19037.56;5448767;26;20323;-69
2024/04/23 07:10:38;;;;;;;6.53;5.30;;;6.30;99.90;;;-141.84;51.50;19057.88;5449083;26;20634;-69
2024/04/23 07:13:12;;;;;;;11.10;5.50;;;6.20;99.90;;;-141.84;51.71;19015.19;5450025;26;20737;-59
2024/04/23 07:15:40;;;;;;;5.40;4.77;;;6.30;99.90;;;-141.84;50.83;19070.06;5434491;26;20286;-59
2024/04/23 07:18:12;;;;;;;4.47;4.00;;;6.20;99.90;;;-141.84;49.63;19047.72;5449362;26;20314;-58
2024/04/23 07:20:39;;;;;;;4.07;3.67;;;6.10;99.90;;;-141.84;49.12;19053.81;5448247;26;20253;-59
2024/04/23 07:23:10;;;;;;;4.50;4.10;;;6.20;99.90;;;-141.84;49.18;19090.38;5449091;26;20253;-58
2024/04/23 07:25:37;;;;;;;5.00;4.50;;;6.20;99.90;;;-141.84;49.33;19055.84;5436465;26;20231;-58
2024/04/23 07:28:09;;;;;;;4.37;3.97;;;6.30;99.90;;;-141.84;49.77;19063.97;5440463;26;20256;-58
2024/04/23 07:30:41;;;;;;;4.47;4.07;;;6.30;99.90;;;-141.84;49.19;19068.03;5387012;26;20284;-58
2024/04/23 07:33:11;;;;;;;5.33;4.70;;;6.30;99.90;;;-141.84;48.43;19078.19;5434206;26;20620;-60
2024/04/23 07:35:39;;;;;;;6.30;5.20;;;6.30;99.90;;;-141.84;48.71;19068.03;5414461;26;20595;-58
2024/04/23 07:38:11;;;;;;;5.70;5.20;;;6.30;99.90;;;-141.84;48.38;19090.38;5429227;26;20262;-59
2024/04/23 07:40:41;;;;;;;6.03;5.43;;;6.20;99.90;;;-141.84;48.95;19074.13;5430265;26;20764;-58
2024/04/23 07:43:12;;;;;;;5.00;4.50;;;6.30;99.90;;;-141.84;48.37;19045.69;5434997;26;20222;-58
2024/04/23 07:45:42;;;;;;;4.90;4.40;;;6.30;99.90;;;-141.84;47.92;19090.38;5433374;26;20265;-60
2024/04/23 07:48:13;;;;;;;4.50;4.10;;;6.40;99.90;;;-141.84;47.33;19114.78;5434068;26;20253;-59
2024/04/23 07:50:40;;;;;;;5.57;4.63;;;6.50;99.90;;;-141.84;47.82;19114.78;5433830;26;20633;-59
2024/04/23 07:53:10;;;;;;;4.83;4.33;;;6.60;99.90;;;-141.84;47.32;19114.78;5435320;26;20292;-59
2024/04/23 07:55:38;;;;;;;3.97;3.57;;;6.70;99.90;;;-141.84;45.87;19141.19;5433721;26;20239;-59
2024/04/23 07:58:09;;;;;;;3.97;3.30;;;6.80;99.90;;;-141.84;44.90;19159.47;5431680;26;20728;-58
2024/04/23 08:00:37;;;;;;;4.57;3.93;;;6.90;99.90;;;-141.84;44.67;19189.97;5433242;26;20355;-58
2024/04/23 08:03:12;;;;;;;3.90;3.50;;;7.00;99.90;;;-141.84;44.09;19179.78;5436805;26;20881;-59
2024/04/23 08:05:39;;;;;;;3.40;3.10;;;7.10;99.90;;;-141.84;43.80;19192.00;5437793;26;20253;-61
2024/04/23 08:08:10;;;;;;;5.17;3.80;;;7.20;99.90;;;-141.84;43.72;19200.13;5433826;26;20280;-59
2024/04/23 08:10:38;;;;;;;5.23;3.90;;;7.30;99.90;;;-141.84;44.13;19200.13;5431852;26;20319;-58
2024/04/23 08:13:09;;;;;;;3.90;3.50;;;7.30;99.90;;;-141.84;44.50;19167.59;5432932;26;20242;-60
2024/04/23 08:15:38;;;;;;;4.30;3.90;;;7.40;99.90;;;-141.84;44.39;19175.72;5417358;26;21186;-59
2024/04/23 08:18:11;;;;;;;4.10;3.80;;;7.40;99.90;;;-141.84;44.24;19240.75;5418001;26;20250;-59
2024/04/23 08:20:39;;;;;;;4.03;3.63;;;7.60;99.90;;;-141.84;43.97;19212.31;5433689;26;20284;-58
2024/04/23 08:23:12;;;;;;;3.70;3.40;;;7.50;99.90;;;-141.84;43.71;19206.22;5437626;26;20296;-58
2024/04/23 08:25:41;;;;;;;4.27;3.87;;;7.50;99.90;;;-141.84;44.40;19179.78;5434605;26;20231;-59
2024/04/23 08:28:11;;;;;;;4.37;3.43;;;7.30;99.90;;;-141.84;44.39;19173.69;5442014;26;20264;-61
2024/04/23 08:30:38;;;;;;;3.20;2.90;;;7.20;99.90;;;-141.84;44.62;19143.22;5426694;26;20287;-58
2024/04/23 08:33:11;;;;;;;3.37;3.07;;;6.90;99.90;;;-141.84;44.21;19135.09;5437631;26;20249;-58
2024/04/23 08:35:39;;;;;;;2.87;2.63;;;6.70;99.90;;;-141.84;44.31;19090.38;5432380;26;20706;-58
2024/04/23 08:38:10;;;;;;;4.10;2.50;;;6.60;99.90;;;-141.84;43.58;19131.03;5432340;26;20761;-58
2024/04/23 08:40:37;;;;;;;3.13;2.83;;;6.70;99.90;;;-141.84;43.13;19167.59;5433288;26;20243;-59
2024/04/23 08:43:21;;;;;;;3.80;3.50;;;6.70;99.90;;;-141.84;43.52;19167.59;5437951;26;20733;-59
2024/04/23 08:45:50;;;;;;;3.17;2.93;;;6.80;99.90;;;-141.84;44.04;19169.63;5436222;26;20327;-58
2024/04/23 08:48:24;;;;;;;3.40;3.10;;;6.90;99.90;;;-141.84;44.10;19187.91;5424496;26;20297;-59
2024/04/23 08:50:55;;;;;;;3.10;2.80;;;7.10;99.90;;;-141.84;43.56;19224.50;5416469;26;20258;-60
2024/04/23 08:53:27;;;;;;;2.73;2.53;;;7.10;99.90;;;-141.84;41.71;19222.47;5416406;26;20839;-60
2024/04/23 08:55:58;;;;;;;4.17;3.70;;;7.30;99.90;;;-141.84;42.98;19210.28;5437132;26;20257;-58
2024/04/23 08:58:30;;;;;;;2.67;2.47;;;7.30;99.90;;;-141.84;43.13;19210.28;5435760;26;20326;-61
2024/04/23 09:01:00;;;;;;;3.20;2.60;;;7.20;99.90;;;-141.84;43.75;19153.38;5432780;26;20269;-58
2024/04/23 09:03:44;;;;;;;3.20;2.90;;;7.10;99.90;;;-141.84;43.34;19218.41;5434079;26;20255;-59
2024/04/23 09:06:13;;;;;;;3.20;2.90;;;7.20;99.90;;;-141.84;43.26;19204.19;5418132;26;20355;-59
2024/04/23 09:08:44;;;;;;;4.13;3.40;;;7.30;99.90;;;-141.84;41.98;19246.84;5442467;26;20253;-58
2024/04/23 09:11:14;;;;;;;4.00;3.43;;;7.60;99.90;;;-141.84;42.23;19271.25;5417053;26;20314;-60
2024/04/23 09:13:45;;;;;;;4.27;3.70;;;7.80;99.90;;;-141.84;42.37;19269.22;5415932;26;20742;-61
2024/04/23 09:16:14;;;;;;;3.63;3.33;;;7.80;99.90;;;-141.84;42.18;19281.41;5386065;26;21014;-59
2024/04/23 09:18:47;;;;;;;4.77;4.27;;;8.10;99.90;;;-141.84;41.96;19297.66;5415412;26;20387;-60
2024/04/23 09:21:16;;;;;;;3.87;3.57;;;8.20;99.90;;;-141.84;41.22;19295.63;5416158;26;20258;-59
2024/04/23 09:23:49;;;;;;;3.57;3.27;;;8.20;99.90;;;-141.84;41.16;19374.88;5416141;26;20286;-62
2024/04/23 09:26:16;;;;;;;3.53;3.23;;;8.40;99.90;;;-141.84;41.07;19370.81;5449093;26;20249;-59
2024/04/23 09:28:50;;;;;;;3.50;2.93;;;8.60;99.90;;;-141.84;39.67;19397.22;5450660;26;20277;-59
2024/04/23 09:31:20;;;;;;;4.77;3.53;;;8.90;99.90;;;-141.84;40.29;19407.38;5451058;26;20230;-58
2024/04/23 09:34:01;;;;;;;3.00;2.70;;;9.10;99.90;;;-141.84;39.23;19437.88;5451613;26;20292;-57
2024/04/23 09:36:30;;;;;;;3.17;2.87;;;9.40;99.90;;;-141.84;39.09;19476.47;5451866;26;20249;-58
2024/04/23 09:39:02;;;;;;;3.17;2.87;;;9.60;99.90;;;-141.84;38.51;19488.69;5454210;26;20254;-58
2024/04/23 09:41:31;;;;;;;3.10;2.80;;;9.60;99.90;;;-141.84;38.37;19494.78;5455787;26;20353;-59
2024/04/23 09:44:04;;;;;;;2.73;2.40;;;9.60;99.90;;;-141.84;38.43;19456.16;5440278;26;20733;-59
2024/04/23 09:46:34;;;;;;;2.90;2.53;;;9.60;99.90;;;-141.84;38.39;19492.75;5451243;26;20218;-59
2024/04/23 09:49:10;;;;;;;2.90;2.53;;;9.60;99.90;;;-141.84;37.49;19537.44;5451659;26;20272;-59
2024/04/23 09:51:37;;;;;;;2.80;2.60;;;10.00;99.90;;;-141.84;37.10;19541.50;5451562;26;20250;-60
2024/04/23 09:54:08;;;;;;;3.17;2.90;;;10.10;99.90;;;-141.84;36.54;19551.69;5451296;26;20249;-59
2024/04/23 09:56:36;;;;;;;3.00;2.80;;;10.30;99.90;;;-141.84;36.29;19592.31;5452235;26;20342;-59
2024/04/23 09:59:14;;;;;;;2.90;2.63;;;10.40;99.90;;;-141.84;36.41;19576.06;5451697;26;20253;-59
2024/04/23 10:01:47;;;;;;;2.90;2.60;;;10.50;99.90;;;-141.84;37.07;19553.72;5450366;26;20235;-59
2024/04/23 10:04:22;;;;;;;4.23;2.80;;;10.40;99.90;;;-141.84;37.40;19539.47;5380708;26;20338;-59
2024/04/23 10:06:56;;;;;;;3.77;2.97;;;10.30;99.90;;;-141.84;38.37;19478.50;5403851;26;20768;-58
2024/04/23 10:09:32;;;;;;;3.10;2.80;;;9.90;99.90;;;-141.84;38.76;19492.75;5451568;26;20280;-59
2024/04/23 10:12:08;;;;;;;2.93;2.63;;;9.80;99.90;;;-141.84;38.59;19486.66;5451838;26;20249;-59
2024/04/23 10:14:57;;;;;;;3.57;2.90;;;9.70;99.90;;;-141.84;38.39;19476.47;5452017;26;20285;-60
2024/04/23 10:17:32;;;;;;;3.37;2.67;;;9.70;99.90;;;-141.84;38.66;19480.53;5450023;26;20293;-59
2024/04/23 10:20:10;;;;;;;3.00;2.70;;;9.60;99.90;;;-141.84;38.44;19480.53;5440456;26;20253;-59
2024/04/23 10:22:39;;;;;;;3.43;3.13;;;9.70;99.90;;;-141.84;38.55;19492.75;5449756;26;20230;-60
2024/04/23 10:25:11;;;;;;;3.00;2.70;;;9.60;99.90;;;-141.84;37.72;19484.59;5442923;26;20230;-60
2024/04/23 10:27:42;;;;;;;3.10;2.90;;;9.70;99.90;;;-141.84;38.63;19484.59;5437625;26;20257;-59
2024/04/23 10:30:12;;;;;;;3.40;3.03;;;9.60;99.90;;;-141.84;38.44;19492.75;5431030;26;20257;-60
2024/04/23 10:32:45;;;;;;;3.20;2.90;;;9.40;99.90;;;-141.84;37.50;19464.28;5430081;26;20250;-59
2024/04/23 10:35:19;;;;;;;2.73;2.53;;;9.40;99.90;;;-141.84;37.81;19419.59;5445661;26;20296;-59
2024/04/23 10:37:53;;;;;;;2.67;2.47;;;9.20;99.90;;;-141.84;38.39;19425.69;5430085;26;20814;-59
2024/04/23 10:40:21;;;;;;;2.60;2.40;;;9.10;99.90;;;-141.84;38.65;19401.28;5430973;26;20227;-59
2024/04/23 10:42:52;;;;;;;2.30;2.10;;;9.00;99.90;;;-141.84;38.92;19427.72;5419652;26;20348;-58
2024/04/23 10:45:20;;;;;;;3.37;3.07;;;9.00;99.90;;;-141.84;38.72;19439.91;5435813;26;20365;-59
2024/04/23 10:47:53;;;;;;;2.70;2.50;;;9.00;99.90;;;-141.84;38.04;19448.03;5429881;26;20742;-59
2024/04/23 10:50:30;;;;;;;3.50;2.53;;;9.30;99.90;;;-141.84;37.29;19486.66;5436327;26;20261;-60